Time;durP1;ratioP1;P1;durP2;ratioP2;P2;SDS_P1;SDS_P2;PMS_P1;PMS_P2;Temp;Humidity;BMP_temperature;BMP_pressure;BME280_temperature;BME280_humidity;BME280_pressure;Samples;Min_cycle;Max_cycle;Signal;HPM_P1;HPM_P2
2023/08/09 00:00:49;;;;;;;9.27;2.73;;;18.40;99.90;;;;;;7281925;19;20644;-80
2023/08/09 00:03:15;;;;;;;9.40;2.90;;;18.40;99.90;;;;;;7281167;19;20290;-79
2023/08/09 00:05:41;;;;;;;9.17;3.00;;;18.40;99.90;;;;;;7304269;19;20649;-79
2023/08/09 00:08:06;;;;;;;9.67;3.07;;;18.40;99.90;;;;;;7282061;19;20227;-80
2023/08/09 00:10:35;;;;;;;12.37;3.10;;;18.30;99.90;;;;;;7286312;19;20186;-80
2023/08/09 00:13:01;;;;;;;9.03;3.30;;;18.30;99.90;;;;;;7289062;19;20281;-80
2023/08/09 00:15:27;;;;;;;7.80;3.40;;;18.30;99.90;;;;;;7289468;19;20188;-79
2023/08/09 00:17:53;;;;;;;9.90;3.40;;;18.30;99.90;;;;;;7288268;19;20188;-80
2023/08/09 00:20:22;;;;;;;9.43;3.30;;;18.40;99.90;;;;;;7288750;19;20521;-80
2023/08/09 00:22:49;;;;;;;9.90;3.57;;;18.30;99.90;;;;;;7288809;19;20193;-80
2023/08/09 00:25:15;;;;;;;8.70;3.07;;;18.20;99.90;;;;;;7288469;19;20222;-80
2023/08/09 00:27:42;;;;;;;8.50;3.10;;;18.10;99.90;;;;;;7310644;19;20184;-80
2023/08/09 00:30:10;;;;;;;7.80;3.43;;;18.20;99.90;;;;;;7286490;19;20534;-80
2023/08/09 00:32:37;;;;;;;11.40;3.10;;;18.10;99.90;;;;;;7287825;19;20771;-80
2023/08/09 00:35:04;;;;;;;12.53;3.50;;;18.20;99.90;;;;;;7288410;19;20286;-80
2023/08/09 00:37:30;;;;;;;8.77;3.47;;;18.10;99.90;;;;;;7288099;19;20185;-80
2023/08/09 00:39:55;;;;;;;9.77;3.27;;;18.00;99.90;;;;;;7286422;19;20713;-79
2023/08/09 00:42:23;;;;;;;8.30;2.87;;;18.10;99.90;;;;;;7287049;19;20244;-78
2023/08/09 00:44:50;;;;;;;7.77;3.27;;;18.00;99.90;;;;;;7286981;19;20566;-80
2023/08/09 00:47:16;;;;;;;9.43;3.70;;;18.00;99.90;;;;;;7287141;19;20184;-80
2023/08/09 00:49:42;;;;;;;9.17;3.00;;;18.00;99.90;;;;;;7308158;19;20198;-79
2023/08/09 00:52:09;;;;;;;9.23;3.10;;;18.00;99.90;;;;;;7289575;19;20177;-80
2023/08/09 00:54:38;;;;;;;11.30;3.70;;;18.00;99.90;;;;;;7286128;19;20231;-80
2023/08/09 00:57:05;;;;;;;7.47;3.30;;;18.00;99.90;;;;;;7286863;19;20239;-79
2023/08/09 00:59:31;;;;;;;7.73;3.37;;;18.10;99.90;;;;;;7286026;19;20181;-80
2023/08/09 01:01:57;;;;;;;14.03;3.77;;;18.10;99.90;;;;;;7285343;19;20189;-80
2023/08/09 01:04:23;;;;;;;11.00;4.10;;;18.10;99.90;;;;;;7286067;19;20679;-80
2023/08/09 01:06:56;;;;;;;8.90;3.87;;;18.20;99.90;;;;;;7287364;19;20258;-80
2023/08/09 01:09:30;;;;;;;12.87;4.50;;;18.20;99.90;;;;;;7287009;19;20218;-80
2023/08/09 01:12:07;;;;;;;14.80;4.50;;;18.20;99.90;;;;;;7286754;19;20658;-80
2023/08/09 01:14:36;;;;;;;9.07;4.23;;;18.30;99.90;;;;;;7286692;19;20759;-79
2023/08/09 01:17:04;;;;;;;12.57;5.20;;;18.30;99.90;;;;;;7286502;19;20573;-80
2023/08/09 01:19:50;;;;;;;13.63;5.00;;;18.30;99.90;;;;;;7287171;19;20180;-80
2023/08/09 01:22:22;;;;;;;11.20;4.53;;;18.30;99.90;;;;;;7264590;19;20209;-80
2023/08/09 01:24:49;;;;;;;12.10;5.50;;;18.30;99.90;;;;;;7285456;19;20708;-80
2023/08/09 01:27:14;;;;;;;12.60;4.90;;;18.30;99.90;;;;;;7286414;19;20595;-80
2023/08/09 01:29:41;;;;;;;12.13;4.83;;;18.40;99.90;;;;;;7306967;19;20206;-80
2023/08/09 01:32:08;;;;;;;11.70;5.40;;;18.40;99.90;;;;;;7286817;19;20276;-79
2023/08/09 01:34:35;;;;;;;16.10;5.27;;;18.40;99.90;;;;;;7284981;19;20182;-80
2023/08/09 01:37:18;;;;;;;12.57;4.90;;;18.40;99.90;;;;;;7285038;19;20192;-79
2023/08/09 01:39:50;;;;;;;14.50;5.17;;;18.40;99.90;;;;;;7273882;19;20191;-80
2023/08/09 01:42:16;;;;;;;9.20;5.07;;;18.40;99.90;;;;;;7285726;19;20672;-79
2023/08/09 01:44:43;;;;;;;11.97;5.40;;;18.40;99.90;;;;;;7307934;19;20191;-79
2023/08/09 01:47:09;;;;;;;9.80;4.70;;;18.40;99.90;;;;;;7285773;19;20679;-80
2023/08/09 01:49:37;;;;;;;10.60;5.23;;;18.40;99.90;;;;;;7286779;19;20216;-79
2023/08/09 01:52:04;;;;;;;11.13;5.20;;;18.30;99.90;;;;;;7286917;19;20204;-79
2023/08/09 01:54:30;;;;;;;10.40;4.63;;;18.30;99.90;;;;;;7286788;19;20695;-80
2023/08/09 01:56:55;;;;;;;13.10;5.50;;;18.30;99.90;;;;;;7283245;19;20190;-79
2023/08/09 01:59:23;;;;;;;11.50;5.40;;;18.30;99.90;;;;;;7286330;19;20185;-79
2023/08/09 02:01:48;;;;;;;15.93;5.90;;;18.30;99.90;;;;;;7283757;19;20192;-79
2023/08/09 02:04:14;;;;;;;12.53;5.83;;;18.30;99.90;;;;;;7287930;19;20585;-79
2023/08/09 02:06:40;;;;;;;14.13;5.90;;;18.40;99.90;;;;;;7308781;19;20194;-79
2023/08/09 02:09:06;;;;;;;17.87;6.20;;;18.40;99.90;;;;;;7284021;19;20198;-80
2023/08/09 02:11:32;;;;;;;12.87;6.07;;;18.50;99.90;;;;;;7284378;19;20186;-80
2023/08/09 02:13:58;;;;;;;17.67;6.30;;;18.50;99.90;;;;;;7283671;19;20608;-80
2023/08/09 02:16:24;;;;;;;13.67;6.60;;;18.50;99.90;;;;;;7283546;19;20194;-80
2023/08/09 02:18:49;;;;;;;15.77;6.47;;;18.40;99.90;;;;;;7284893;19;20213;-80
2023/08/09 02:21:15;;;;;;;16.60;6.87;;;18.50;99.90;;;;;;7285237;19;20297;-80
2023/08/09 02:23:41;;;;;;;15.10;7.17;;;18.50;99.90;;;;;;7305618;19;20282;-80
2023/08/09 02:26:07;;;;;;;16.03;7.10;;;18.50;99.90;;;;;;7287105;19;20223;-80
2023/08/09 02:28:33;;;;;;;14.90;6.43;;;18.50;99.90;;;;;;7283771;19;20277;-80
2023/08/09 02:31:01;;;;;;;15.33;7.20;;;18.40;99.90;;;;;;7282670;19;20191;-79
2023/08/09 02:33:28;;;;;;;14.13;7.60;;;18.40;99.90;;;;;;7281052;19;20581;-80
2023/08/09 02:35:56;;;;;;;12.37;7.20;;;18.40;99.90;;;;;;7280981;19;20228;-79
2023/08/09 02:38:23;;;;;;;12.67;7.27;;;18.40;99.90;;;;;;7280612;19;20188;-80
2023/08/09 02:40:49;;;;;;;16.00;6.83;;;18.40;99.90;;;;;;7283463;19;20204;-80
2023/08/09 02:43:16;;;;;;;18.17;7.70;;;18.40;99.90;;;;;;7283425;19;20185;-81
2023/08/09 02:45:43;;;;;;;17.33;7.60;;;18.40;99.90;;;;;;7301897;19;20185;-79
2023/08/09 02:48:09;;;;;;;13.80;7.73;;;18.40;99.90;;;;;;7297378;19;20205;-79
2023/08/09 02:50:36;;;;;;;16.23;7.33;;;18.40;99.90;;;;;;7283539;19;20192;-80
2023/08/09 02:53:03;;;;;;;13.90;7.60;;;18.40;99.90;;;;;;7285184;19;20193;-80
2023/08/09 02:55:31;;;;;;;16.77;8.03;;;18.50;99.90;;;;;;7281204;19;20187;-79
2023/08/09 02:57:57;;;;;;;13.83;7.23;;;18.60;99.90;;;;;;7284538;19;20193;-79
2023/08/09 03:00:23;;;;;;;14.33;7.53;;;18.60;99.90;;;;;;7283292;19;20201;-79
2023/08/09 03:02:49;;;;;;;15.87;7.57;;;18.70;99.90;;;;;;7281691;19;20217;-80
2023/08/09 03:05:16;;;;;;;15.47;7.70;;;18.70;99.90;;;;;;7284317;19;20271;-79
2023/08/09 03:07:42;;;;;;;14.37;7.43;;;18.70;99.90;;;;;;7305584;19;20186;-79
2023/08/09 03:10:08;;;;;;;15.13;7.90;;;18.80;99.90;;;;;;7283303;19;20242;-79
2023/08/09 03:12:35;;;;;;;13.47;7.93;;;18.80;99.90;;;;;;7284742;19;20189;-79
2023/08/09 03:15:01;;;;;;;15.67;7.83;;;18.80;99.90;;;;;;7282671;19;20191;-79
2023/08/09 03:17:29;;;;;;;13.87;8.57;;;18.80;99.90;;;;;;7283307;19;20252;-79
2023/08/09 03:19:54;;;;;;;16.77;7.90;;;18.70;99.90;;;;;;7282435;19;20193;-79
2023/08/09 03:22:20;;;;;;;15.07;8.53;;;18.70;99.90;;;;;;7282411;19;20208;-80
2023/08/09 03:24:46;;;;;;;16.77;8.63;;;18.70;99.90;;;;;;7282953;19;20195;-80
2023/08/09 03:27:13;;;;;;;15.17;8.80;;;18.70;99.90;;;;;;7300040;19;20185;-80
2023/08/09 03:29:40;;;;;;;16.70;8.13;;;18.70;99.90;;;;;;7302139;19;20656;-80
2023/08/09 03:32:06;;;;;;;6.47;2.93;;;18.30;99.90;;;;;;7282888;19;20180;-80
2023/08/09 03:34:32;;;;;;;5.23;2.40;;;17.80;99.90;;;;;;7282745;19;20195;-79
2023/08/09 03:36:59;;;;;;;5.23;2.43;;;17.40;99.90;;;;;;7282207;19;20201;-79
2023/08/09 03:39:26;;;;;;;5.50;2.43;;;17.00;99.90;;;;;;7280727;19;20190;-79
2023/08/09 03:41:55;;;;;;;5.20;2.80;;;16.80;99.90;;;;;;7282093;19;20189;-79
2023/08/09 03:44:21;;;;;;;6.10;3.10;;;16.60;99.90;;;;;;7280802;19;20273;-79
2023/08/09 03:46:47;;;;;;;6.30;2.70;;;16.20;99.90;;;;;;7286800;19;20180;-79
2023/08/09 03:49:13;;;;;;;7.27;2.93;;;16.00;99.90;;;;;;7306410;19;20301;-79
2023/08/09 03:51:40;;;;;;;9.07;3.20;;;15.90;99.90;;;;;;7288708;19;20178;-80
2023/08/09 03:54:06;;;;;;;6.63;3.37;;;15.80;99.90;;;;;;7288257;19;20195;-80
2023/08/09 03:56:32;;;;;;;6.10;3.10;;;15.70;99.90;;;;;;7286178;19;20195;-80
2023/08/09 03:58:57;;;;;;;6.77;3.40;;;15.80;99.90;;;;;;7286816;19;20654;-80
2023/08/09 04:01:23;;;;;;;6.80;3.53;;;15.80;99.90;;;;;;7287296;19;20257;-79
2023/08/09 04:03:49;;;;;;;10.77;4.10;;;15.90;99.90;;;;;;7289725;19;20196;-80
2023/08/09 04:06:15;;;;;;;8.67;4.00;;;16.00;99.90;;;;;;7291010;19;20258;-79
2023/08/09 04:08:41;;;;;;;8.30;4.00;;;15.90;99.90;;;;;;7309196;19;20185;-79
2023/08/09 04:11:07;;;;;;;8.20;4.00;;;16.00;99.90;;;;;;7289205;19;20188;-79
2023/08/09 04:13:33;;;;;;;8.00;3.93;;;16.00;99.90;;;;;;7286797;19;20565;-80
2023/08/09 04:15:59;;;;;;;10.40;4.57;;;16.10;99.90;;;;;;7289644;19;20207;-79
2023/08/09 04:18:25;;;;;;;10.57;5.00;;;16.20;99.90;;;;;;7287155;19;20555;-79
2023/08/09 04:20:51;;;;;;;12.33;5.60;;;16.40;99.90;;;;;;7288242;19;20199;-80
2023/08/09 04:23:20;;;;;;;9.97;4.70;;;16.60;99.90;;;;;;7288113;19;20943;-80
2023/08/09 04:25:46;;;;;;;11.87;4.97;;;16.70;99.90;;;;;;7288801;19;20195;-80
2023/08/09 04:28:12;;;;;;;11.93;4.57;;;16.70;99.90;;;;;;7310720;19;20660;-80
2023/08/09 04:30:38;;;;;;;9.63;4.70;;;16.70;99.90;;;;;;7287533;19;20286;-80
2023/08/09 04:33:04;;;;;;;11.00;5.03;;;16.80;99.90;;;;;;7289117;19;20657;-80
2023/08/09 04:35:33;;;;;;;12.27;5.50;;;16.90;99.90;;;;;;7289186;19;20227;-80
2023/08/09 04:38:04;;;;;;;11.97;5.37;;;17.00;99.90;;;;;;7286460;19;20184;-79
2023/08/09 04:40:34;;;;;;;12.97;6.17;;;17.10;99.90;;;;;;7288487;19;20193;-80
2023/08/09 04:43:00;;;;;;;11.70;5.93;;;17.10;99.90;;;;;;7287643;19;20197;-80
2023/08/09 04:45:26;;;;;;;9.53;4.90;;;17.10;99.90;;;;;;7286520;19;20209;-80
2023/08/09 04:47:52;;;;;;;9.60;5.63;;;17.00;99.90;;;;;;7287474;19;20197;-80
2023/08/09 04:50:21;;;;;;;17.23;5.50;;;17.00;99.90;;;;;;7288140;19;20685;-80
2023/08/09 04:52:47;;;;;;;10.53;5.03;;;17.10;99.90;;;;;;7287828;19;20189;-79
2023/08/09 04:55:13;;;;;;;8.53;5.00;;;17.10;99.90;;;;;;7306871;19;20647;-80
2023/08/09 04:57:38;;;;;;;8.67;4.83;;;17.20;99.90;;;;;;7287508;19;20198;-80
2023/08/09 05:00:09;;;;;;;10.30;4.53;;;17.20;99.90;;;;;;7290208;19;20194;-80
2023/08/09 05:02:36;;;;;;;8.30;4.17;;;17.20;99.90;;;;;;7285618;19;20227;-80
2023/08/09 05:05:09;;;;;;;11.50;4.60;;;17.20;99.90;;;;;;7286856;19;20184;-80
2023/08/09 05:07:35;;;;;;;13.33;4.60;;;17.30;99.90;;;;;;7288273;19;20271;-80
2023/08/09 05:10:02;;;;;;;11.23;4.60;;;17.40;99.90;;;;;;7287892;19;20238;-80
2023/08/09 05:12:28;;;;;;;9.17;4.20;;;17.40;99.90;;;;;;7286701;19;20751;-80
2023/08/09 05:14:54;;;;;;;11.30;4.77;;;17.40;99.90;;;;;;7287572;19;20216;-80
2023/08/09 05:17:20;;;;;;;11.13;4.83;;;17.40;99.90;;;;;;7286992;19;20176;-81
2023/08/09 05:19:46;;;;;;;10.00;4.33;;;17.40;99.90;;;;;;7287468;19;20201;-80
2023/08/09 05:22:12;;;;;;;10.90;5.40;;;17.50;99.90;;;;;;7309049;19;20295;-80
2023/08/09 05:24:39;;;;;;;9.40;4.97;;;17.60;99.90;;;;;;7285256;19;20184;-80
2023/08/09 05:27:05;;;;;;;12.90;4.90;;;17.70;99.90;;;;;;7286331;19;20179;-80
2023/08/09 05:29:30;;;;;;;9.07;4.60;;;17.90;99.90;;;;;;7286462;19;20654;-80
2023/08/09 05:31:56;;;;;;;8.57;5.00;;;17.90;99.90;;;;;;7286206;19;20201;-81
2023/08/09 05:34:22;;;;;;;10.87;4.70;;;18.10;99.90;;;;;;7285921;19;20185;-81
2023/08/09 05:36:48;;;;;;;9.97;4.70;;;18.50;99.90;;;;;;7285619;19;20177;-81
2023/08/09 05:39:13;;;;;;;7.53;4.23;;;19.50;99.90;;;;;;7306824;19;20182;-78
2023/08/09 05:41:40;;;;;;;7.03;3.60;;;21.10;99.90;;;;;;7293476;19;20191;-79
2023/08/09 05:44:05;;;;;;;7.43;3.57;;;22.50;99.90;;;;;;7284322;19;20196;-80
2023/08/09 05:46:31;;;;;;;7.43;3.10;;;23.70;99.90;;;;;;7283547;19;20680;-79
2023/08/09 05:48:57;;;;;;;6.27;3.10;;;25.10;99.90;;;;;;7285462;19;20196;-79
2023/08/09 05:51:24;;;;;;;4.67;2.53;;;26.20;99.90;;;;;;7286749;19;20190;-78
2023/08/09 05:53:51;;;;;;;6.63;2.70;;;27.10;99.90;;;;;;7284972;19;20193;-79
2023/08/09 05:56:17;;;;;;;6.43;2.53;;;27.30;99.90;;;;;;7284525;19;20249;-78
2023/08/09 05:58:43;;;;;;;4.47;2.20;;;28.20;99.90;;;;;;7307190;19;20656;-79
2023/08/09 06:01:08;;;;;;;5.07;2.23;;;29.00;99.90;;;;;;7286218;19;20185;-79
2023/08/09 06:03:39;;;;;;;5.43;2.63;;;29.60;99.90;;;;;;7284116;19;20210;-79
2023/08/09 06:06:06;;;;;;;6.25;2.90;;;30.10;99.90;;;;;;7286303;19;20198;-79
2023/08/09 06:08:33;;;;;;;7.55;2.80;;;30.50;99.90;;;;;;7282018;19;20212;-79
2023/08/09 06:10:59;;;;;;;5.57;2.95;;;30.60;99.90;;;;;;7283854;19;20782;-78
2023/08/09 06:13:27;;;;;;;5.15;2.80;;;30.50;99.90;;;;;;7283917;19;20188;-78
2023/08/09 06:15:53;;;;;;;5.20;2.70;;;30.10;99.90;;;;;;7283879;19;20185;-78
2023/08/09 06:18:19;;;;;;;6.20;3.10;;;30.30;99.90;;;;;;7285433;19;20201;-78
2023/08/09 06:20:45;;;;;;;8.07;3.42;;;30.50;99.90;;;;;;7296758;19;20676;-79
2023/08/09 06:23:11;;;;;;;6.63;3.20;;;30.20;99.90;;;;;;7303103;19;20185;-79
2023/08/09 06:25:37;;;;;;;6.70;3.10;;;29.90;99.90;;;;;;7285937;19;20184;-78
2023/08/09 06:28:04;;;;;;;6.97;3.22;;;29.50;99.90;;;;;;7283944;19;20185;-78
2023/08/09 06:30:30;;;;;;;4.93;2.88;;;29.40;99.90;;;;;;7282780;19;20192;-80
2023/08/09 06:32:55;;;;;;;5.90;3.08;;;29.30;99.90;;;;;;7283902;19;20261;-79
2023/08/09 06:35:21;;;;;;;8.43;3.80;;;28.80;99.90;;;;;;7284425;19;20663;-77
2023/08/09 06:37:48;;;;;;;8.20;3.70;;;27.80;99.90;;;;;;7284651;19;20188;-79
2023/08/09 06:40:16;;;;;;;6.43;3.80;;;27.00;99.90;;;;;;7301153;19;20189;-79
2023/08/09 06:42:43;;;;;;;7.70;3.90;;;26.40;99.90;;;;;;7306943;19;20203;-79
2023/08/09 06:45:12;;;;;;;8.43;3.50;;;25.80;99.90;;;;;;7283941;19;21021;-79
2023/08/09 06:47:38;;;;;;;10.23;3.63;;;25.20;99.90;;;;;;7285317;19;20276;-79
2023/08/09 06:50:05;;;;;;;7.13;3.63;;;25.00;99.90;;;;;;7283956;19;20227;-79
2023/08/09 06:52:32;;;;;;;7.17;3.80;;;24.90;99.90;;;;;;7284481;19;20185;-78
2023/08/09 06:54:57;;;;;;;9.97;3.73;;;24.70;99.90;;;;;;7283587;19;20185;-77
2023/08/09 06:57:24;;;;;;;8.07;3.93;;;25.00;99.90;;;;;;7281002;19;20515;-78
2023/08/09 06:59:51;;;;;;;7.00;3.70;;;25.20;99.90;;;;;;7281566;19;20189;-78
2023/08/09 07:02:17;;;;;;;8.30;4.07;;;25.30;99.90;;;;;;7282516;19;20256;-79
2023/08/09 07:04:43;;;;;;;6.33;4.00;;;25.10;99.90;;;;;;7306235;19;20222;-79
2023/08/09 07:07:09;;;;;;;7.67;4.17;;;24.80;99.90;;;;;;7283148;19;20188;-78
2023/08/09 07:09:35;;;;;;;8.63;3.80;;;24.70;99.90;;;;;;7282410;19;20178;-79
2023/08/09 07:12:01;;;;;;;10.80;4.70;;;24.40;99.90;;;;;;7283093;19;20595;-78
2023/08/09 07:14:27;;;;;;;11.23;4.90;;;24.40;99.90;;;;;;7283786;19;20248;-79
2023/08/09 07:16:53;;;;;;;10.23;4.73;;;24.40;99.90;;;;;;7281247;19;20208;-79
2023/08/09 07:19:18;;;;;;;8.70;4.63;;;24.30;99.90;;;;;;7287527;19;20184;-79
2023/08/09 07:21:44;;;;;;;10.27;4.67;;;24.30;99.90;;;;;;7310252;19;20698;-78
2023/08/09 07:24:10;;;;;;;9.97;4.53;;;24.40;99.90;;;;;;7296633;19;20595;-79
2023/08/09 07:26:36;;;;;;;8.40;4.57;;;24.50;99.90;;;;;;7288337;19;20549;-78
2023/08/09 07:29:03;;;;;;;9.67;5.00;;;24.70;99.90;;;;;;7284963;19;20183;-78
2023/08/09 07:31:28;;;;;;;8.63;5.23;;;24.50;99.90;;;;;;7286846;19;20189;-79
2023/08/09 07:33:54;;;;;;;8.83;5.23;;;24.50;99.90;;;;;;7290699;19;20278;-79
2023/08/09 07:36:20;;;;;;;12.57;6.20;;;24.50;99.90;;;;;;7289576;19;20236;-79
2023/08/09 07:38:46;;;;;;;10.40;6.40;;;24.30;99.90;;;;;;7293617;19;20195;-79
2023/08/09 07:41:12;;;;;;;10.67;6.37;;;24.20;99.90;;;;;;7310555;19;20181;-79
2023/08/09 07:43:38;;;;;;;9.83;6.37;;;24.10;99.90;;;;;;7285923;19;20200;-78
2023/08/09 07:46:05;;;;;;;11.90;7.37;;;23.90;99.90;;;;;;7288075;19;20194;-78
2023/08/09 07:48:32;;;;;;;11.60;7.47;;;23.80;99.90;;;;;;7288045;19;20189;-79
2023/08/09 07:50:58;;;;;;;13.73;7.27;;;25.00;99.90;;;;;;7287581;19;20810;-79
2023/08/09 07:53:24;;;;;;;10.87;6.40;;;26.30;99.90;;;;;;7288525;19;20328;-79
2023/08/09 07:55:50;;;;;;;14.77;6.50;;;28.30;99.90;;;;;;7288373;19;20189;-79
2023/08/09 07:58:16;;;;;;;9.68;5.72;;;29.90;99.90;;;;;;7290631;19;20299;-79
2023/08/09 08:00:42;;;;;;;9.65;5.50;;;31.00;99.90;;;;;;7308365;19;20196;-79
2023/08/09 08:03:09;;;;;;;7.70;5.07;;;32.00;99.90;;;;;;7287758;19;20548;-79
2023/08/09 08:05:36;;;;;;;8.55;5.25;;;32.60;99.90;;;;;;7288253;19;20254;-79
2023/08/09 08:08:02;;;;;;;7.07;4.25;;;34.00;99.90;;;;;;7288947;19;20181;-79
2023/08/09 08:10:28;;;;;;;9.40;5.05;;;35.10;98.40;;;;;;7288492;19;20193;-78
2023/08/09 08:12:54;;;;;;;6.75;4.00;;;35.20;92.00;;;;;;7288596;19;20311;-79
2023/08/09 08:15:20;;;;;;;8.02;4.50;;;35.50;92.50;;;;;;7287130;19;20208;-79
2023/08/09 08:17:48;;;;;;;7.32;4.65;;;35.40;90.60;;;;;;7287932;19;20195;-79
2023/08/09 08:20:17;;;;;;;7.07;3.78;;;33.70;94.30;;;;;;7309800;19;20192;-79
2023/08/09 08:22:48;;;;;;;6.65;2.80;;;33.40;93.90;;;;;;7288596;19;20185;-79
2023/08/09 08:25:15;;;;;;;7.47;2.55;;;33.30;93.40;;;;;;7287989;19;20209;-79
2023/08/09 08:27:48;;;;;;;5.22;2.33;;;31.80;93.50;;;;;;7287754;19;20197;-80
2023/08/09 08:30:20;;;;;;;5.18;2.20;;;31.00;97.90;;;;;;7286109;19;20185;-80
2023/08/09 08:32:47;;;;;;;4.35;2.00;;;32.10;95.50;;;;;;7268459;19;20528;-80
2023/08/09 08:35:14;;;;;;;3.85;2.00;;;34.20;93.50;;;;;;7309388;19;20197;-79
2023/08/09 08:37:41;;;;;;;5.55;1.83;;;34.10;86.40;;;;;;7288397;19;20192;-80
2023/08/09 08:40:14;;;;;;;6.30;2.20;;;35.60;87.30;;;;;;7285869;19;20716;-80
2023/08/09 08:42:41;;;;;;;5.40;2.35;;;35.30;84.20;;;;;;7286018;19;20189;-80
2023/08/09 08:45:11;;;;;;;4.63;2.63;;;35.60;85.90;;;;;;7284766;19;20205;-80
2023/08/09 08:47:41;;;;;;;3.75;2.13;;;33.80;89.30;;;;;;7285582;19;20297;-79
2023/08/09 08:50:08;;;;;;;2.75;1.80;;;34.20;90.90;;;;;;7287513;19;20196;-79
2023/08/09 08:52:37;;;;;;;4.78;2.22;;;35.90;87.80;;;;;;7286128;19;20645;-79
2023/08/09 08:55:07;;;;;;;4.88;2.40;;;37.50;78.90;;;;;;7286267;19;20193;-78
2023/08/09 08:57:33;;;;;;;5.28;2.20;;;38.20;73.60;;;;;;7286761;19;20278;-80
2023/08/09 09:00:07;;;;;;;5.30;2.60;;;36.70;76.40;;;;;;7286902;19;20200;-80
2023/08/09 09:02:36;;;;;;;7.97;2.30;;;35.20;78.60;;;;;;7287041;19;20609;-80
2023/08/09 09:05:03;;;;;;;6.22;1.77;;;33.40;83.10;;;;;;7286168;19;20616;-80
2023/08/09 09:07:29;;;;;;;4.13;1.65;;;32.10;86.00;;;;;;7287396;19;20537;-80
2023/08/09 09:10:03;;;;;;;3.08;1.50;;;32.50;85.80;;;;;;7288062;19;20213;-80
2023/08/09 09:12:29;;;;;;;4.20;1.73;;;34.40;80.20;;;;;;7285618;19;20524;-80
2023/08/09 09:14:55;;;;;;;3.10;1.50;;;36.10;76.20;;;;;;7287607;19;20207;-80
2023/08/09 09:17:21;;;;;;;4.20;1.60;;;37.10;76.90;;;;;;7286605;19;20188;-80
2023/08/09 09:19:48;;;;;;;4.47;1.73;;;38.40;72.60;;;;;;7286807;19;20205;-80
2023/08/09 09:22:30;;;;;;;5.20;1.77;;;39.40;70.50;;;;;;7309101;19;20189;-80
2023/08/09 09:24:58;;;;;;;5.65;1.60;;;39.70;66.30;;;;;;7183485;19;2004743;-80
2023/08/09 09:27:33;;;;;;;5.78;1.70;;;38.10;68.10;;;;;;7286688;19;20692;-79
2023/08/09 09:30:04;;;;;;;3.63;1.58;;;38.10;64.70;;;;;;7283224;19;20203;-80
2023/08/09 09:32:30;;;;;;;3.60;1.55;;;36.50;69.20;;;;;;7284224;19;20196;-80
2023/08/09 09:34:56;;;;;;;4.32;1.15;;;35.50;74.40;;;;;;7283688;19;20598;-81
2023/08/09 09:37:25;;;;;;;6.00;1.80;;;35.50;74.80;;;;;;7283381;19;20649;-80
2023/08/09 09:39:52;;;;;;;4.28;1.60;;;35.00;68.90;;;;;;7285626;19;20709;-80
2023/08/09 09:42:28;;;;;;;5.45;1.50;;;33.40;76.50;;;;;;7283179;19;20188;-81
2023/08/09 09:45:02;;;;;;;4.18;1.30;;;33.30;76.20;;;;;;7285364;19;20196;-81
2023/08/09 09:47:31;;;;;;;4.72;1.50;;;34.10;74.70;;;;;;7285650;19;20197;-80
2023/08/09 09:49:57;;;;;;;4.53;1.40;;;34.80;73.40;;;;;;7286006;19;20193;-80
2023/08/09 09:52:23;;;;;;;5.65;1.25;;;35.50;72.60;;;;;;7284914;19;20300;-80
2023/08/09 09:54:51;;;;;;;10.55;1.90;;;34.50;73.50;;;;;;7285038;19;20195;-80
2023/08/09 09:57:17;;;;;;;6.03;1.95;;;33.20;74.30;;;;;;7284902;19;20189;-80
2023/08/09 09:59:43;;;;;;;5.07;1.80;;;31.90;78.30;;;;;;7308009;19;20551;-80
2023/08/09 10:02:10;;;;;;;4.30;1.90;;;31.10;87.20;;;;;;7284347;19;20716;-79
2023/08/09 10:04:37;;;;;;;4.80;1.73;;;32.60;79.40;;;;;;7284317;19;20198;-80
2023/08/09 10:07:03;;;;;;;4.82;1.65;;;33.20;79.60;;;;;;7285365;19;20218;-79
2023/08/09 10:09:30;;;;;;;5.43;1.92;;;33.60;80.40;;;;;;7284727;19;20196;-80
2023/08/09 10:11:59;;;;;;;3.90;1.63;;;32.70;78.00;;;;;;7283170;19;20188;-80
2023/08/09 10:14:28;;;;;;;4.65;1.88;;;33.00;80.10;;;;;;7285015;19;20189;-79
2023/08/09 10:16:54;;;;;;;5.13;2.22;;;32.00;81.10;;;;;;7285269;19;20271;-81
2023/08/09 10:19:23;;;;;;;5.10;2.05;;;31.40;80.40;;;;;;7285932;19;20189;-81
2023/08/09 10:21:52;;;;;;;6.30;2.25;;;30.60;83.10;;;;;;7283501;19;20256;-81
2023/08/09 10:24:18;;;;;;;5.65;2.38;;;30.20;89.80;;;;;;7284345;19;20713;-80
2023/08/09 10:26:49;;;;;;;4.53;2.05;;;31.60;85.50;;;;;;7306448;19;20191;-80
2023/08/09 10:29:23;;;;;;;6.43;1.83;;;33.60;80.80;;;;;;7281902;19;20198;-80
2023/08/09 10:31:57;;;;;;;3.95;1.73;;;33.70;77.00;;;;;;7263561;19;20576;-80
2023/08/09 10:34:35;;;;;;;4.55;1.70;;;32.50;77.90;;;;;;7283629;19;20185;-80
2023/08/09 10:37:02;;;;;;;4.63;1.73;;;31.70;80.00;;;;;;7285071;19;20544;-80
2023/08/09 10:39:30;;;;;;;4.47;1.80;;;33.50;78.90;;;;;;7285088;19;20181;-80
2023/08/09 10:41:57;;;;;;;3.75;1.40;;;34.70;75.00;;;;;;7284108;19;20188;-80
2023/08/09 10:44:43;;;;;;;5.00;1.50;;;35.00;71.20;;;;;;7283129;19;20279;-80
2023/08/09 10:47:21;;;;;;;5.80;1.70;;;34.40;73.80;;;;;;7284887;19;20189;-80
2023/08/09 10:49:49;;;;;;;5.47;1.83;;;35.40;71.10;;;;;;7263945;19;20211;-80
2023/08/09 10:52:17;;;;;;;5.45;1.90;;;33.60;71.90;;;;;;7304177;19;20192;-79
2023/08/09 10:54:44;;;;;;;6.75;2.00;;;32.80;75.10;;;;;;7304113;19;20217;-80
2023/08/09 10:57:11;;;;;;;5.03;1.80;;;32.40;76.90;;;;;;7285006;19;20261;-80
2023/08/09 10:59:38;;;;;;;8.85;1.70;;;32.10;76.40;;;;;;7283393;19;20188;-80
2023/08/09 11:02:07;;;;;;;5.82;1.75;;;31.30;76.00;;;;;;7283151;19;20207;-80
2023/08/09 11:04:36;;;;;;;5.25;1.75;;;30.40;81.50;;;;;;7284494;19;20178;-80
2023/08/09 11:07:02;;;;;;;5.28;1.80;;;29.90;83.80;;;;;;7282556;19;20667;-80
2023/08/09 11:09:32;;;;;;;8.27;1.70;;;29.40;81.80;;;;;;7283768;19;20213;-80
2023/08/09 11:11:57;;;;;;;4.97;1.70;;;28.90;84.60;;;;;;7282979;19;20213;-80
2023/08/09 11:14:24;;;;;;;4.57;1.38;;;29.70;85.30;;;;;;7283216;19;20197;-80
2023/08/09 11:16:51;;;;;;;3.90;1.33;;;32.00;79.20;;;;;;7281506;19;20252;-80
2023/08/09 11:19:21;;;;;;;5.00;1.05;;;33.40;72.10;;;;;;7287326;19;20268;-80
2023/08/09 11:21:53;;;;;;;5.45;1.50;;;33.20;71.00;;;;;;7282859;19;20185;-80
2023/08/09 11:24:21;;;;;;;3.53;1.10;;;33.60;67.70;;;;;;7283498;19;20198;-80
2023/08/09 11:26:54;;;;;;;6.70;1.35;;;32.40;72.10;;;;;;7289702;19;20208;-80
2023/08/09 11:29:26;;;;;;;4.50;1.63;;;31.50;70.90;;;;;;7280981;19;20200;-80
2023/08/09 11:31:55;;;;;;;4.13;1.30;;;31.50;70.40;;;;;;7282395;19;20192;-80
2023/08/09 11:34:23;;;;;;;3.53;1.23;;;32.70;70.50;;;;;;7282299;19;20205;-80
2023/08/09 11:36:52;;;;;;;3.97;1.30;;;31.70;67.80;;;;;;7282416;19;20189;-80
2023/08/09 11:39:19;;;;;;;4.97;1.30;;;32.40;71.70;;;;;;7283637;19;20184;-80
2023/08/09 11:41:56;;;;;;;5.70;1.20;;;33.40;71.40;;;;;;7302029;19;20244;-80
2023/08/09 11:44:31;;;;;;;5.63;1.35;;;34.00;68.30;;;;;;7278902;19;20193;-79
2023/08/09 11:47:01;;;;;;;5.90;1.30;;;34.90;67.70;;;;;;7283533;19;20293;-80
2023/08/09 11:49:32;;;;;;;4.28;1.45;;;34.70;65.10;;;;;;7283159;19;20223;-80
2023/08/09 11:52:00;;;;;;;4.07;1.20;;;34.10;65.50;;;;;;7280602;19;20193;-80
2023/08/09 11:54:26;;;;;;;5.32;1.70;;;34.00;68.00;;;;;;7282046;19;20185;-80
2023/08/09 11:56:53;;;;;;;5.40;1.80;;;32.20;68.90;;;;;;7282354;19;20196;-80
2023/08/09 11:59:21;;;;;;;6.30;1.15;;;32.00;71.10;;;;;;7283165;19;20193;-80
2023/08/09 12:01:49;;;;;;;4.22;1.42;;;32.80;70.30;;;;;;7288123;19;20194;-79
2023/08/09 12:04:20;;;;;;;6.28;1.60;;;31.40;69.00;;;;;;7303201;19;20548;-79
2023/08/09 12:06:46;;;;;;;4.80;1.88;;;29.40;74.10;;;;;;7300329;19;20558;-80
2023/08/09 12:09:25;;;;;;;4.18;1.60;;;29.20;79.20;;;;;;7302963;19;20203;-80
2023/08/09 12:11:51;;;;;;;5.43;1.40;;;30.60;80.90;;;;;;7186857;19;2004725;-79
2023/08/09 12:14:17;;;;;;;4.50;1.48;;;31.90;77.60;;;;;;7293062;19;20268;-79
2023/08/09 12:16:43;;;;;;;4.47;1.25;;;32.70;68.20;;;;;;7309730;19;20196;-80
2023/08/09 12:19:08;;;;;;;5.78;1.45;;;33.80;69.30;;;;;;7288742;19;20188;-80
2023/08/09 12:21:34;;;;;;;4.50;1.45;;;33.10;66.60;;;;;;7288887;19;20192;-80
2023/08/09 12:24:02;;;;;;;3.35;1.50;;;33.90;69.30;;;;;;7287237;19;20189;-80
2023/08/09 12:26:32;;;;;;;6.97;1.48;;;32.90;68.80;;;;;;7289267;19;20188;-80
2023/08/09 12:28:58;;;;;;;4.28;1.50;;;30.60;71.50;;;;;;7286398;19;20188;-80
2023/08/09 12:31:24;;;;;;;6.97;1.83;;;29.80;79.30;;;;;;7286547;19;20189;-80
2023/08/09 12:33:50;;;;;;;5.93;1.55;;;28.20;81.90;;;;;;7286807;19;20653;-80
2023/08/09 12:36:16;;;;;;;4.55;1.77;;;28.30;87.40;;;;;;7302310;19;20194;-79
2023/08/09 12:38:42;;;;;;;5.18;1.40;;;28.20;89.20;;;;;;7301927;19;20193;-81
2023/08/09 12:41:08;;;;;;;9.25;1.95;;;28.00;90.90;;;;;;7288327;19;20189;-80
2023/08/09 12:43:35;;;;;;;6.85;1.50;;;28.00;84.30;;;;;;7287989;19;22051;-80